Decoded Metar for UIBB (BRATSK in RUSSIA) (IATA:BTK) | Meteo·Mobile Aviation Weather
aviador You're here:

UIBB Decoded Metar

BRATSK in RUSSIA
Report Time2019-01-20 10:00:00
UTC Time2019-01-20 10:36:13
Flight Rules vfr VFR
Wind230° at 10 kt
W.Decomp.*RWY 30: 3.6 kt HW 9.3 kt LCW
W.Rank230° ranks 8
Current wind is above 230° avg. (6.1)
Visibility9999 m
Phenomena:N/A
Clouds:N/A
Expected CloudBase > 3,600 ft AGL from Temp-Dew spread
CeilingNone
Temp-5°C (ISA -17)
Dew Point-14°C (50% RH)
AAT-11.9°C
QNH1014 hPa
Density Alt-459 ft
Elevation1,608 ft
Report Wrong Elevation
Raw Report
METAR UIBB 201000Z 23005MPS 9999 NSC M05/M14 Q1014 R30/390137 NOSIG
RMK QFE717/0957=

Extra information for UIBB:More info

Metar Taf Metar & Taf Last 4 Metars F.Rules Stats Wind Profile Meteogram Temp Stats Airport Information Weather charts Add Link Nearby VenuesMetar ALERT Operation Metar Decoded Social comments